createdAt,value
2018-04-06T00:00:38.226Z,2.42
2018-04-06T00:03:07.253Z,2.65
2018-04-06T00:05:36.459Z,2.33
2018-04-06T00:08:06.013Z,2.15
2018-04-06T00:10:34.397Z,2.35
2018-04-06T00:13:04.724Z,1.90
2018-04-06T00:15:32.789Z,2.72
2018-04-06T00:18:01.789Z,1.95
2018-04-06T00:20:31.553Z,2.97
2018-04-06T00:23:00.570Z,2.17
2018-04-06T00:25:29.488Z,2.37
2018-04-06T00:27:59.424Z,2.28
2018-04-06T00:30:32.235Z,2.00
2018-04-06T00:33:02.945Z,2.60
2018-04-06T00:35:31.060Z,2.15
2018-04-06T00:38:00.544Z,2.37
2018-04-06T00:40:29.595Z,1.92
2018-04-06T00:43:05.290Z,2.33
2018-04-06T00:45:34.988Z,2.40
2018-04-06T00:48:03.474Z,2.10
2018-04-06T00:50:37.769Z,2.30
2018-04-06T00:55:58.710Z,2.42
2018-04-06T00:58:28.657Z,2.20
2018-04-06T01:00:57.141Z,2.00
2018-04-06T01:03:29.022Z,1.98
2018-04-06T01:05:59.070Z,2.10
2018-04-06T01:08:28.387Z,2.35
2018-04-06T01:10:56.004Z,2.10
2018-04-06T01:13:23.869Z,2.05
2018-04-06T01:15:51.536Z,3.00
2018-04-06T01:18:19.176Z,2.30
2018-04-06T01:20:46.794Z,2.37
2018-04-06T01:23:15.208Z,2.30
2018-04-06T01:25:42.822Z,2.25
2018-04-06T01:28:11.288Z,2.85
2018-04-06T01:30:39.573Z,2.20
2018-04-06T01:33:07.469Z,2.65
2018-04-06T01:35:35.102Z,2.55
2018-04-06T01:38:02.758Z,2.03
2018-04-06T01:40:30.411Z,2.00
2018-04-06T01:42:58.209Z,2.45
2018-04-06T01:45:25.875Z,2.37
2018-04-06T01:47:53.491Z,2.53
2018-04-06T01:50:22.133Z,2.50
2018-04-06T01:52:50.589Z,2.42
2018-04-06T01:55:18.223Z,2.10
2018-04-06T01:57:45.863Z,2.50
2018-04-06T02:00:13.478Z,2.60
2018-04-06T02:02:41.131Z,2.25
2018-04-06T02:05:09.507Z,2.37
2018-04-06T02:07:37.876Z,2.30
2018-04-06T02:10:05.523Z,2.78
2018-04-06T02:12:34.163Z,2.75
2018-04-06T02:15:01.785Z,2.40
2018-04-06T02:17:29.462Z,2.80
2018-04-06T02:19:57.292Z,2.53
2018-04-06T02:22:24.962Z,2.00
2018-04-06T02:24:52.602Z,2.05
2018-04-06T02:27:20.292Z,2.45
2018-04-06T02:29:48.268Z,2.17
2018-04-06T02:32:15.914Z,2.08
2018-04-06T02:34:44.303Z,2.50
2018-04-06T02:37:11.973Z,2.30
2018-04-06T02:39:40.093Z,2.45
2018-04-06T02:42:07.725Z,2.20
2018-04-06T02:44:35.349Z,2.40
2018-04-06T02:47:03.751Z,2.50
2018-04-06T02:49:32.120Z,2.37
2018-04-06T02:52:00.499Z,2.47
2018-04-06T02:54:28.141Z,2.50
2018-04-06T02:56:56.488Z,2.58
2018-04-06T02:59:24.096Z,2.87
2018-04-06T03:01:51.758Z,2.53
2018-04-06T03:04:19.371Z,2.40
2018-04-06T03:06:48.477Z,2.58
2018-04-06T03:09:16.133Z,2.58
2018-04-06T03:11:44.534Z,2.70
2018-04-06T03:14:12.161Z,2.47
2018-04-06T03:16:39.786Z,2.20
2018-04-06T03:19:07.406Z,2.45
2018-04-06T03:21:35.829Z,2.10
2018-04-06T03:24:03.777Z,2.40
2018-04-06T03:26:31.394Z,2.37
2018-04-06T03:28:59.072Z,3.27
2018-04-06T03:31:26.675Z,2.35
2018-04-06T03:33:55.078Z,2.30
2018-04-06T03:36:22.742Z,2.50
2018-04-06T03:38:50.693Z,2.83
2018-04-06T03:41:19.068Z,3.25
2018-04-06T03:43:47.471Z,2.30
2018-04-06T03:46:15.470Z,2.58
2018-04-06T03:48:43.105Z,2.93
2018-04-06T03:51:10.771Z,3.07
2018-04-06T03:53:39.286Z,2.70
2018-04-06T03:56:06.915Z,2.67
2018-04-06T03:58:35.293Z,2.80
2018-04-06T04:01:03.712Z,2.72
2018-04-06T04:03:31.333Z,2.37
2018-04-06T04:05:59.721Z,2.50
2018-04-06T04:08:27.370Z,2.58
2018-04-06T04:10:55.008Z,2.40
2018-04-06T04:13:22.999Z,2.65
2018-04-06T04:15:51.490Z,2.40
2018-04-06T04:18:19.168Z,2.35
2018-04-06T04:20:46.810Z,2.53
2018-04-06T04:23:14.468Z,2.40
2018-04-06T04:25:42.316Z,2.30
2018-04-06T04:28:09.938Z,2.93
2018-04-06T04:30:39.311Z,2.95
2018-04-06T04:33:06.948Z,2.50
2018-04-06T04:35:34.879Z,2.40
2018-04-06T04:38:03.423Z,2.12
2018-04-06T04:40:31.063Z,2.40
2018-04-06T04:42:58.700Z,2.47
2018-04-06T04:45:26.360Z,2.42
2018-04-06T04:47:53.994Z,2.60
2018-04-06T04:50:21.636Z,2.33
2018-04-06T04:52:50.466Z,2.12
2018-04-06T04:55:18.129Z,2.47
2018-04-06T04:57:45.798Z,2.90
2018-04-06T05:00:13.405Z,2.70
2018-04-06T05:02:41.067Z,2.50
2018-04-06T05:05:09.465Z,2.50
2018-04-06T05:07:38.592Z,2.20
2018-04-06T05:10:06.885Z,2.40
2018-04-06T05:12:34.532Z,2.17
2018-04-06T05:15:02.929Z,2.75
2018-04-06T05:17:30.564Z,2.22
2018-04-06T05:19:58.989Z,2.47
2018-04-06T05:22:27.760Z,2.60
2018-04-06T05:24:55.403Z,2.33
2018-04-06T05:27:23.119Z,2.40
2018-04-06T05:29:50.765Z,2.20
2018-04-06T05:32:18.384Z,2.50
2018-04-06T05:34:46.075Z,2.20
2018-04-06T05:37:15.374Z,2.17
2018-04-06T05:39:43.851Z,2.60
2018-04-06T05:42:11.987Z,2.50
2018-04-06T05:44:39.697Z,2.40
2018-04-06T05:47:08.098Z,2.20
2018-04-06T05:49:35.775Z,2.45
2018-04-06T05:52:03.467Z,2.80
2018-04-06T05:54:31.132Z,2.70
2018-04-06T05:56:58.801Z,2.60
2018-04-06T05:59:26.640Z,2.70
2018-04-06T06:01:55.249Z,2.60
2018-04-06T06:04:22.870Z,2.50
2018-04-06T06:06:50.469Z,2.50
2018-04-06T06:09:18.868Z,2.43
2018-04-06T06:11:46.502Z,2.65
2018-04-06T06:14:14.112Z,2.30
2018-04-06T06:16:41.750Z,2.20
2018-04-06T06:19:09.492Z,2.45
2018-04-06T06:21:37.921Z,2.67
2018-04-06T06:24:05.547Z,2.35
2018-04-06T06:26:33.190Z,2.90
2018-04-06T06:29:00.836Z,2.60
2018-04-06T06:31:28.514Z,2.37
2018-04-06T06:33:56.117Z,2.70
2018-04-06T06:36:23.759Z,2.60
2018-04-06T06:38:51.393Z,2.40
2018-04-06T06:41:19.829Z,2.75
2018-04-06T06:43:47.444Z,2.30
2018-04-06T06:46:15.097Z,2.80
2018-04-06T06:48:42.705Z,2.22
2018-04-06T06:51:10.647Z,2.50
2018-04-06T06:53:38.260Z,2.25
2018-04-06T06:56:06.290Z,2.00
2018-04-06T06:58:33.941Z,2.72
2018-04-06T07:01:01.577Z,2.10
2018-04-06T07:03:29.933Z,2.50
2018-04-06T07:05:57.537Z,2.40
2018-04-06T07:08:26.043Z,2.20
2018-04-06T07:10:54.402Z,2.33
2018-04-06T07:13:22.006Z,2.12
2018-04-06T07:15:49.691Z,1.97
2018-04-06T07:18:17.315Z,1.95
2018-04-06T07:20:45.810Z,2.15
2018-04-06T07:23:13.464Z,1.85
2018-04-06T07:25:42.073Z,1.70
2018-04-06T07:28:09.855Z,1.95
2018-04-06T07:30:37.640Z,1.40
2018-04-06T07:33:05.532Z,1.92
2018-04-06T07:35:33.133Z,1.60
2018-04-06T07:38:01.536Z,1.67
2018-04-06T07:40:29.195Z,1.70
2018-04-06T07:42:56.847Z,1.30
2018-04-06T07:45:25.260Z,1.48
2018-04-06T07:47:52.910Z,1.70
2018-04-06T07:50:20.566Z,1.60
2018-04-06T07:52:48.971Z,1.27
2018-04-06T07:55:16.586Z,1.20
2018-04-06T07:57:44.980Z,1.30
2018-04-06T08:00:12.603Z,1.35
2018-04-06T08:02:40.203Z,1.05
2018-04-06T08:05:08.617Z,0.97
2018-04-06T08:07:36.218Z,1.00
2018-04-06T08:10:03.865Z,1.20
2018-04-06T08:12:31.495Z,1.00
2018-04-06T08:14:59.150Z,1.20
2018-04-06T08:17:26.740Z,1.08
2018-04-06T08:19:55.145Z,1.10
2018-04-06T08:22:22.744Z,1.10
2018-04-06T08:24:50.380Z,0.90
2018-04-06T08:27:18.721Z,1.10
2018-04-06T08:29:46.349Z,1.00
2018-04-06T08:32:13.967Z,0.80
2018-04-06T08:34:41.631Z,1.13
2018-04-06T08:37:10.354Z,0.90
2018-04-06T08:39:37.958Z,1.05
2018-04-06T08:42:05.577Z,0.80
2018-04-06T08:44:33.962Z,0.95
2018-04-06T08:47:01.587Z,0.80
2018-04-06T08:49:29.227Z,0.80
2018-04-06T08:51:56.866Z,1.10
2018-04-06T08:54:24.514Z,0.80
2018-04-06T08:56:52.911Z,0.70
2018-04-06T08:59:20.550Z,0.80
2018-04-06T09:01:48.961Z,0.80
2018-04-06T09:04:17.704Z,0.80
2018-04-06T09:06:45.341Z,0.77
2018-04-06T09:09:13.008Z,0.80
2018-04-06T09:11:41.606Z,0.70
2018-04-06T09:14:09.285Z,0.60
2018-04-06T09:16:36.921Z,0.60
2018-04-06T09:19:04.547Z,0.77
2018-04-06T09:21:32.157Z,0.50
2018-04-06T09:23:59.804Z,0.70
2018-04-06T09:26:27.459Z,0.80
2018-04-06T09:28:55.841Z,0.80
2018-04-06T09:31:24.245Z,0.68
2018-04-06T09:33:51.879Z,0.57
2018-04-06T09:36:20.293Z,0.60
2018-04-06T09:38:47.921Z,0.70
2018-04-06T09:41:15.555Z,0.62
2018-04-06T09:43:43.181Z,0.50
2018-04-06T09:46:11.555Z,0.80
2018-04-06T09:48:39.961Z,0.60
2018-04-06T09:51:07.572Z,0.60
2018-04-06T09:53:35.217Z,0.52
2018-04-06T09:56:02.862Z,0.62
2018-04-06T09:58:31.256Z,0.70
2018-04-06T10:00:58.877Z,0.70
2018-04-06T10:03:26.832Z,0.70
2018-04-06T10:05:54.469Z,0.60
2018-04-06T10:08:22.175Z,0.70
2018-04-06T10:10:49.866Z,0.60
2018-04-06T10:13:18.237Z,0.60
2018-04-06T10:15:46.081Z,0.47
2018-04-06T10:18:13.670Z,0.70
2018-04-06T10:20:41.302Z,0.53
2018-04-06T10:23:08.964Z,0.70
2018-04-06T10:25:36.613Z,0.60
2018-04-06T10:28:04.248Z,0.67
2018-04-06T10:30:31.899Z,0.43
2018-04-06T10:33:00.327Z,0.57
2018-04-06T10:35:28.289Z,0.50
2018-04-06T10:37:56.700Z,0.57
2018-04-06T10:40:24.348Z,0.50
2018-04-06T10:42:52.117Z,0.50
2018-04-06T10:45:19.783Z,0.60
2018-04-06T10:47:47.455Z,0.40
2018-04-06T10:50:15.100Z,0.50
2018-04-06T10:52:43.511Z,0.40
2018-04-06T10:55:11.170Z,0.50
2018-04-06T10:57:38.848Z,0.47
2018-04-06T11:00:06.500Z,0.60
2018-04-06T11:02:34.406Z,0.40
2018-04-06T11:05:02.363Z,0.50
2018-04-06T11:07:30.048Z,0.57
2018-04-06T11:09:58.481Z,0.47
2018-04-06T11:12:26.872Z,0.60
2018-04-06T11:14:55.583Z,0.57
2018-04-06T11:17:23.203Z,0.60
2018-04-06T11:19:50.843Z,0.50
2018-04-06T11:22:18.428Z,0.50
2018-04-06T11:24:46.073Z,0.43
2018-04-06T11:27:14.008Z,0.50
2018-04-06T11:29:42.380Z,0.47
2018-04-06T11:32:10.788Z,0.50
2018-04-06T11:34:38.412Z,0.50
2018-04-06T11:37:05.996Z,0.50
2018-04-06T11:39:34.374Z,0.65
2018-04-06T11:42:02.721Z,0.60
2018-04-06T11:44:30.353Z,0.50
2018-04-06T11:46:57.971Z,0.70
2018-04-06T11:49:26.362Z,0.57
2018-04-06T11:51:53.945Z,0.67
2018-04-06T11:54:22.422Z,0.60
2018-04-06T11:56:50.777Z,0.50
2018-04-06T11:59:18.370Z,0.68
2018-04-06T12:01:46.804Z,0.60
2018-04-06T12:04:14.393Z,0.60
2018-04-06T12:06:42.045Z,0.60
2018-04-06T12:09:09.661Z,0.60
2018-04-06T12:11:38.049Z,0.50
2018-04-06T12:14:05.698Z,0.40
2018-04-06T12:16:34.155Z,0.40
2018-04-06T12:19:01.760Z,0.60
2018-04-06T12:21:29.625Z,0.52
2018-04-06T12:23:58.014Z,0.60
2018-04-06T12:26:25.691Z,0.80
2018-04-06T12:28:53.327Z,0.60
2018-04-06T12:31:20.985Z,0.40
2018-04-06T12:33:48.615Z,0.57
2018-04-06T12:36:16.226Z,0.70
2018-04-06T12:38:44.011Z,0.50
2018-04-06T12:41:11.667Z,0.40
2018-04-06T12:43:39.319Z,0.60
2018-04-06T12:46:06.929Z,0.50
2018-04-06T12:48:34.528Z,0.50
2018-04-06T12:51:02.813Z,0.53
2018-04-06T12:53:30.465Z,0.57
2018-04-06T12:55:58.112Z,0.43
2018-04-06T12:58:25.750Z,0.50
2018-04-06T13:00:54.156Z,0.40
2018-04-06T13:03:22.545Z,0.50
2018-04-06T13:05:50.206Z,0.50
2018-04-06T13:08:17.822Z,0.40
2018-04-06T13:10:45.502Z,0.40
2018-04-06T13:13:13.102Z,0.37
2018-04-06T13:15:41.494Z,0.40
2018-04-06T13:18:09.126Z,0.50
2018-04-06T13:20:37.518Z,0.77
2018-04-06T13:23:05.874Z,0.43
2018-04-06T13:25:33.534Z,0.50
2018-04-06T13:28:02.482Z,0.40
2018-04-06T13:30:30.125Z,0.40
2018-04-06T13:32:58.530Z,0.40
2018-04-06T13:35:26.947Z,0.40
2018-04-06T13:37:54.610Z,0.40
2018-04-06T13:40:22.250Z,0.40
2018-04-06T13:42:49.898Z,0.40
2018-04-06T13:45:17.515Z,0.43
2018-04-06T13:47:45.155Z,0.40
2018-04-06T13:50:12.785Z,0.33
2018-04-06T13:52:40.429Z,0.35
2018-04-06T13:55:08.823Z,0.30
2018-04-06T13:57:37.236Z,0.40
2018-04-06T14:00:05.715Z,0.50
2018-04-06T14:02:33.350Z,0.30
2018-04-06T14:05:00.977Z,0.20
2018-04-06T14:07:28.726Z,0.30
2018-04-06T14:09:56.342Z,0.30
2018-04-06T14:12:23.937Z,0.30
2018-04-06T14:14:51.586Z,0.40
2018-04-06T14:17:19.958Z,0.40
2018-04-06T14:19:47.864Z,0.30
2018-04-06T14:22:15.507Z,0.40
2018-04-06T14:24:43.133Z,0.25
2018-04-06T14:27:10.752Z,0.40
2018-04-06T14:29:39.204Z,0.50
2018-04-06T14:32:06.817Z,0.40
2018-04-06T14:34:34.475Z,0.30
2018-04-06T14:37:02.631Z,0.30
2018-04-06T14:39:31.044Z,0.45
2018-04-06T14:41:58.634Z,0.47
2018-04-06T14:44:26.261Z,0.50
2018-04-06T14:46:54.625Z,0.50
2018-04-06T14:49:22.252Z,0.40
2018-04-06T14:51:49.846Z,0.40
2018-04-06T14:54:17.454Z,0.45
2018-04-06T14:56:45.834Z,0.47
2018-04-06T14:59:14.222Z,0.50
2018-04-06T15:01:41.866Z,0.40
2018-04-06T15:04:09.473Z,0.30
2018-04-06T15:06:37.077Z,0.30
2018-04-06T15:09:05.436Z,0.50
2018-04-06T15:11:33.050Z,0.57
2018-04-06T15:14:01.481Z,0.60
2018-04-06T15:16:29.105Z,0.50
2018-04-06T15:18:56.768Z,0.50
2018-04-06T15:21:24.390Z,0.60
2018-04-06T15:23:52.078Z,1.05
2018-04-06T15:26:20.534Z,0.80
2018-04-06T15:28:48.204Z,0.60
2018-04-06T15:31:15.803Z,0.60
2018-04-06T15:33:43.414Z,0.60
2018-04-06T15:36:11.079Z,0.75
2018-04-06T15:38:38.761Z,0.90
2018-04-06T15:41:06.349Z,0.90
2018-04-06T15:43:33.980Z,0.70
2018-04-06T15:46:01.624Z,0.50
2018-04-06T15:48:30.001Z,0.70
2018-04-06T15:50:58.502Z,0.75
2018-04-06T15:53:26.880Z,0.75
2018-04-06T15:55:55.281Z,0.57
2018-04-06T15:58:22.925Z,0.57
2018-04-06T16:00:51.298Z,0.93
2018-04-06T16:03:19.654Z,0.77
2018-04-06T16:05:47.298Z,0.90
2018-04-06T16:08:14.876Z,0.68
2018-04-06T16:10:42.507Z,0.90
2018-04-06T16:13:10.877Z,1.62
2018-04-06T16:15:39.280Z,1.12
2018-04-06T16:18:06.921Z,0.80
2018-04-06T16:20:34.531Z,0.70
2018-04-06T16:23:02.150Z,0.80
2018-04-06T16:25:30.534Z,1.30
2018-04-06T16:27:59.245Z,3.25
2018-04-06T16:30:26.924Z,2.50
2018-04-06T16:32:54.518Z,4.22
2018-04-06T16:35:22.175Z,1.50
2018-04-06T16:37:49.826Z,1.98
2018-04-06T16:40:17.453Z,1.10
2018-04-06T16:42:45.859Z,0.98
2018-04-06T16:45:13.524Z,0.90
2018-04-06T16:47:41.185Z,0.80
2018-04-06T16:50:08.853Z,0.80
2018-04-06T16:52:36.508Z,0.88
2018-04-06T16:55:04.162Z,0.80
2018-04-06T16:57:32.045Z,0.80
2018-04-06T16:59:59.702Z,0.98
2018-04-06T17:02:28.202Z,0.80
2018-04-06T17:04:56.625Z,0.90
2018-04-06T17:07:24.255Z,0.80
2018-04-06T17:09:52.631Z,1.00
2018-04-06T17:12:20.302Z,0.80
2018-04-06T17:14:48.708Z,0.90
2018-04-06T17:17:16.323Z,1.00
2018-04-06T17:19:44.021Z,1.00
2018-04-06T17:22:12.439Z,0.80
2018-04-06T17:24:40.154Z,0.82
2018-04-06T17:27:09.092Z,0.80
2018-04-06T17:29:36.761Z,0.98
2018-04-06T17:32:04.357Z,0.80
2018-04-06T17:34:32.003Z,1.00
2018-04-06T17:36:59.616Z,1.00
2018-04-06T17:39:27.334Z,0.90
2018-04-06T17:41:55.028Z,1.20
2018-04-06T17:44:23.247Z,1.23
2018-04-06T17:46:51.834Z,1.48
2018-04-06T17:49:19.464Z,1.58
2018-04-06T17:51:47.062Z,1.70
2018-04-06T17:54:15.909Z,2.00
2018-04-06T17:56:43.539Z,1.70
2018-04-06T17:59:11.172Z,1.50
2018-04-06T18:01:40.341Z,1.52
2018-04-06T18:04:07.938Z,1.40
2018-04-06T18:06:36.358Z,1.77
2018-04-06T18:09:04.017Z,1.40
2018-04-06T18:11:33.038Z,1.67
2018-04-06T18:14:00.707Z,1.80
2018-04-06T18:16:28.381Z,1.90
2018-04-06T18:18:56.078Z,1.80
2018-04-06T18:21:23.727Z,2.03
2018-04-06T18:23:52.433Z,2.40
2018-04-06T18:26:21.166Z,2.30
2018-04-06T18:28:48.832Z,2.10
2018-04-06T18:31:17.272Z,2.20
2018-04-06T18:33:44.875Z,2.47
2018-04-06T18:36:12.582Z,2.60
2018-04-06T18:38:40.245Z,2.87
2018-04-06T18:41:08.762Z,2.90
2018-04-06T18:43:36.418Z,3.10
2018-04-06T18:46:04.056Z,2.97
2018-04-06T18:48:31.693Z,2.17
2018-04-06T18:51:00.061Z,2.00
2018-04-06T18:53:28.432Z,2.10
2018-04-06T18:55:56.107Z,2.57
2018-04-06T18:58:23.734Z,2.22
2018-04-06T19:00:51.401Z,2.35
2018-04-06T19:03:18.996Z,2.60
2018-04-06T19:05:46.626Z,2.50
2018-04-06T19:08:15.332Z,2.60
2018-04-06T19:10:42.938Z,2.50
2018-04-06T19:13:10.873Z,2.75
2018-04-06T19:15:38.521Z,2.30
2018-04-06T19:18:06.459Z,2.50
2018-04-06T19:20:34.114Z,2.20
2018-04-06T19:23:01.771Z,2.50
2018-04-06T19:25:29.736Z,2.78
2018-04-06T19:27:57.383Z,2.60
2018-04-06T19:30:25.081Z,2.72
2018-04-06T19:32:53.599Z,2.92
2018-04-06T19:35:22.350Z,2.60
2018-04-06T19:37:50.007Z,2.92
2018-04-06T19:40:17.647Z,2.95
2018-04-06T19:42:46.064Z,3.15
2018-04-06T19:45:13.693Z,2.97
2018-04-06T19:47:42.105Z,3.10
2018-04-06T19:50:09.757Z,3.00
2018-04-06T19:52:38.271Z,3.42
2018-04-06T19:55:05.905Z,3.15
2018-04-06T19:57:33.876Z,3.10
2018-04-06T20:00:01.560Z,3.20
2018-04-06T20:02:29.267Z,3.47
2018-04-06T20:04:57.035Z,3.10
2018-04-06T20:07:24.692Z,3.35
2018-04-06T20:09:52.390Z,2.85
2018-04-06T20:12:20.846Z,3.22
2018-04-06T20:14:49.430Z,2.75
2018-04-06T20:17:17.055Z,2.90
2018-04-06T20:19:45.010Z,3.15
2018-04-06T20:22:14.241Z,2.97
2018-04-06T20:24:42.005Z,3.05
2018-04-06T20:27:09.696Z,2.70
2018-04-06T20:29:37.336Z,2.80
2018-04-06T20:32:06.367Z,2.75
2018-04-06T20:34:34.227Z,3.10
2018-04-06T20:37:02.283Z,2.73
2018-04-06T20:39:29.951Z,2.80
2018-04-06T20:41:58.457Z,3.07
2018-04-06T20:44:26.146Z,3.22
2018-04-06T20:46:53.752Z,3.00
2018-04-06T20:49:22.200Z,2.80
2018-04-06T20:51:49.850Z,2.90
2018-04-06T20:54:17.471Z,2.95
2018-04-06T20:56:45.885Z,3.17
2018-04-06T20:59:13.596Z,3.30
2018-04-06T21:01:41.264Z,3.62
2018-04-06T21:04:08.922Z,3.60
2018-04-06T21:06:37.080Z,3.33
2018-04-06T21:09:05.040Z,3.70
2018-04-06T21:11:32.678Z,3.92
2018-04-06T21:14:00.381Z,3.50
2018-04-06T21:16:28.051Z,3.90
2018-04-06T21:18:55.712Z,3.97
2018-04-06T21:21:23.364Z,3.83
2018-04-06T21:23:50.981Z,4.00
2018-04-06T21:26:18.907Z,3.87
2018-04-06T21:28:46.520Z,3.60
2018-04-06T21:31:14.949Z,3.62
2018-04-06T21:33:43.357Z,3.85
2018-04-06T21:36:11.010Z,3.45
2018-04-06T21:38:38.702Z,4.03
2018-04-06T21:41:06.329Z,3.95
2018-04-06T21:43:34.730Z,3.85
2018-04-06T21:46:02.375Z,3.87
2018-04-06T21:48:30.780Z,3.50
2018-04-06T21:50:58.411Z,3.37
2018-04-06T21:53:26.053Z,3.87
2018-04-06T21:55:53.687Z,3.83
2018-04-06T21:58:21.322Z,3.90
2018-04-06T22:00:49.712Z,3.60
2018-04-06T22:03:18.283Z,3.83
2018-04-06T22:05:45.936Z,4.35
2018-04-06T22:08:13.599Z,4.20
2018-04-06T22:10:41.214Z,4.07
2018-04-06T22:13:08.847Z,3.87
2018-04-06T22:15:36.491Z,3.65
2018-04-06T22:18:04.113Z,4.25
2018-04-06T22:20:31.756Z,3.93
2018-04-06T22:23:00.138Z,4.03
2018-04-06T22:25:28.531Z,4.30
2018-04-06T22:27:56.888Z,3.83
2018-04-06T22:30:24.546Z,3.92
2018-04-06T22:32:52.188Z,4.32
2018-04-06T22:35:19.771Z,3.87
2018-04-06T22:37:47.385Z,3.55
2018-04-06T22:40:15.796Z,4.30
2018-04-06T22:42:43.392Z,3.90
2018-04-06T22:45:10.986Z,4.10
2018-04-06T22:47:39.717Z,3.72
2018-04-06T22:50:07.355Z,4.22
2018-04-06T22:52:35.707Z,4.00
2018-04-06T22:55:03.326Z,3.60
2018-04-06T22:57:30.959Z,3.53
2018-04-06T22:59:58.560Z,3.65
2018-04-06T23:02:26.608Z,3.50
2018-04-06T23:04:55.032Z,3.42
2018-04-06T23:07:22.654Z,3.62
2018-04-06T23:09:51.447Z,3.20
2018-04-06T23:12:20.357Z,3.25
2018-04-06T23:14:47.948Z,3.20
2018-04-06T23:17:15.573Z,3.62
2018-04-06T23:19:43.968Z,3.60
2018-04-06T23:22:13.228Z,3.37
2018-04-06T23:24:40.843Z,3.80
2018-04-06T23:27:08.499Z,3.80
2018-04-06T23:29:36.914Z,3.08
2018-04-06T23:32:04.542Z,3.53
2018-04-06T23:34:32.897Z,3.20
2018-04-06T23:37:00.536Z,3.20
2018-04-06T23:39:28.169Z,3.22
2018-04-06T23:41:55.793Z,2.87
2018-04-06T23:44:23.432Z,3.12
2018-04-06T23:46:51.057Z,3.40
2018-04-06T23:49:19.512Z,3.25
2018-04-06T23:51:47.091Z,3.22
2018-04-06T23:54:14.726Z,4.00
2018-04-06T23:56:42.325Z,3.50
2018-04-06T23:59:09.925Z,3.45
